Airport View

Enter AWOS ICAO identifier for current METAR.

ex. KFNL

KLNL 251635Z AUTO 00000KT 10SM SCT013 BKN025 OVC029 00/M04 A3029 RMK AO2 P0003 T10051040

25 Oct 2020 16:44

Frequency: 119.525

Phone: 715-547-6313

Other Area AWOS: KEGV - KARV - KD25 - KRHI

TAF KRHI 251120Z 2512/2612 36003KT P6SM OVC080 FM251700 34003KT P6SM -SHSN OVC040 FM252000 34003KT 5SM -SHSN OVC026 FM252100 33003KT 3SM -SHSN OVC014 FM260800 32004KT P6SM OVC018 FM261000 31004KT P6SM BKN022